Time;durP1;ratioP1;P1;durP2;ratioP2;P2;SDS_P1;SDS_P2;PMS_P1;PMS_P2;Temp;Humidity;BMP_temperature;BMP_pressure;BME280_temperature;BME280_humidity;BME280_pressure;Samples;Min_cycle;Max_cycle;Signal;HPM_P1;HPM_P2
2023/02/02 00:00:58;;;;;;;136.73;64.82;;;103.10;2227.20;;;;;;5053574;28;20037;-63
2023/02/02 00:03:24;;;;;;;34.13;19.05;;;103.20;2227.20;;;;;;5053645;28;20075;-63
2023/02/02 00:05:52;;;;;;;138.10;69.80;;;103.20;2227.20;;;;;;5053815;28;20082;-61
2023/02/02 00:08:19;;;;;;;86.95;48.90;;;103.30;2227.20;;;;;;5053673;28;20025;-61
2023/02/02 00:10:46;;;;;;;120.90;59.90;;;128.10;2252.80;;;;;;5053421;28;20021;-63
2023/02/02 00:13:12;;;;;;;132.63;72.28;;;128.00;2252.80;;;;;;5053595;28;20032;-61
2023/02/02 00:15:38;;;;;;;124.10;68.47;;;128.10;2252.80;;;;;;5053206;28;20404;-61
2023/02/02 00:18:04;;;;;;;85.32;48.58;;;128.10;2252.80;;;;;;5034484;28;20106;-63
2023/02/02 00:20:30;;;;;;;279.00;155.30;;;128.20;2252.80;;;;;;5053437;28;20491;-63
2023/02/02 00:22:56;;;;;;;337.65;199.32;;;128.20;2252.80;;;;;;5053228;28;20032;-61
2023/02/02 00:25:22;;;;;;;51.08;28.55;;;128.30;2252.80;;;;;;5053088;28;20073;-63
2023/02/02 00:27:48;;;;;;;221.73;124.93;;;128.40;2252.80;;;;;;5052813;28;20029;-63
2023/02/02 00:30:14;;;;;;;54.75;32.78;;;128.40;2252.80;;;;;;5052662;28;20013;-64
2023/02/02 00:32:40;;;;;;;52.60;32.35;;;128.50;2252.80;;;;;;5052256;28;20025;-62
2023/02/02 00:35:07;;;;;;;72.13;41.85;;;128.50;2252.80;;;;;;5051684;28;20025;-63
2023/02/02 00:37:33;;;;;;;103.57;56.67;;;128.40;2252.80;;;;;;5049718;28;20021;-63
2023/02/02 00:39:59;;;;;;;87.00;48.13;;;128.50;2252.80;;;;;;5043693;28;20032;-63
2023/02/02 00:42:25;;;;;;;82.55;46.20;;;128.60;2252.80;;;;;;5043156;28;20020;-64
2023/02/02 00:47:35;;;;;;;45.92;26.42;;;128.50;2252.80;;;;;;5050085;28;20063;-63
2023/02/02 00:50:00;;;;;;;102.97;54.22;;;128.50;2252.80;;;;;;5052722;28;20058;-63
2023/02/02 00:52:26;;;;;;;52.58;29.35;;;128.60;2252.80;;;;;;5052193;28;20100;-63
2023/02/02 00:54:52;;;;;;;32.22;20.10;;;128.70;2252.80;;;;;;5052259;28;20542;-62
2023/02/02 00:57:18;;;;;;;32.03;21.33;;;128.60;2252.80;;;;;;5052157;28;20116;-63
2023/02/02 00:59:44;;;;;;;42.22;24.98;;;128.70;2252.80;;;;;;5052322;28;20047;-64
2023/02/02 01:02:11;;;;;;;39.55;23.33;;;128.70;2252.80;;;;;;5052154;28;20031;-63
2023/02/02 01:04:37;;;;;;;31.73;19.08;;;128.50;2252.80;;;;;;5052290;28;20036;-63
2023/02/02 01:07:02;;;;;;;57.58;32.65;;;128.60;2252.80;;;;;;5052552;28;20390;-63
2023/02/02 01:09:28;;;;;;;48.65;28.35;;;128.60;2252.80;;;;;;5052485;28;20037;-63
2023/02/02 01:11:54;;;;;;;96.07;56.20;;;128.70;2252.80;;;;;;5052427;28;20021;-64
2023/02/02 01:14:19;;;;;;;158.73;85.47;;;128.70;2252.80;;;;;;5052970;28;20029;-63
2023/02/02 01:16:45;;;;;;;137.93;72.93;;;128.80;2252.80;;;;;;5052271;28;20029;-64
2023/02/02 01:19:13;;;;;;;58.50;33.28;;;128.90;2252.80;;;;;;5052326;28;20033;-64
2023/02/02 01:21:38;;;;;;;47.97;28.63;;;128.80;2252.80;;;;;;5052154;28;20021;-64
2023/02/02 01:24:04;;;;;;;135.65;71.82;;;128.90;2252.80;;;;;;5052094;28;20037;-64
2023/02/02 01:26:30;;;;;;;46.67;24.90;;;128.90;2252.80;;;;;;5052270;28;20036;-63
2023/02/02 01:28:56;;;;;;;59.75;33.28;;;128.90;2252.80;;;;;;5052016;28;20402;-64
2023/02/02 01:31:22;;;;;;;122.88;58.20;;;128.90;2252.80;;;;;;5052267;28;20029;-64
2023/02/02 01:33:48;;;;;;;146.80;71.97;;;128.90;2252.80;;;;;;5051766;28;20108;-63
2023/02/02 01:36:22;;;;;;;147.48;86.68;;;153.60;2252.80;;;;;;5051903;28;20025;-64
2023/02/02 01:38:48;;;;;;;36.78;19.35;;;153.80;2252.80;;;;;;5051944;28;20021;-64
2023/02/02 01:41:17;;;;;;;22.02;15.40;;;153.90;2252.80;;;;;;5051796;28;20044;-63
2023/02/02 01:43:43;;;;;;;75.93;41.80;;;153.70;2252.80;;;;;;5052161;28;20090;-63
2023/02/02 01:46:17;;;;;;;411.10;217.52;;;153.90;2252.80;;;;;;5051228;28;20104;-62
2023/02/02 01:48:53;;;;;;;99.57;62.05;;;154.00;2252.80;;;;;;5051750;28;20052;-63
2023/02/02 01:51:48;;;;;;;113.43;65.53;;;154.20;2252.80;;;;;;5052007;28;20025;-63
2023/02/02 01:54:34;;;;;;;34.83;23.05;;;154.30;2252.80;;;;;;5051647;28;20123;-63
2023/02/02 01:57:08;;;;;;;113.53;65.13;;;154.30;2252.80;;;;;;5051673;28;20433;-63
2023/02/02 01:59:34;;;;;;;105.20;58.80;;;154.40;2252.80;;;;;;5051328;28;20118;-65
2023/02/02 02:02:01;;;;;;;104.22;54.97;;;154.40;2252.80;;;;;;5051647;28;20522;-63
2023/02/02 02:04:29;;;;;;;123.88;64.68;;;154.40;2252.80;;;;;;5051331;28;20067;-63
2023/02/02 02:06:55;;;;;;;78.60;45.85;;;154.40;2252.80;;;;;;5051177;28;20036;-64
2023/02/02 02:09:21;;;;;;;43.63;23.83;;;154.50;2252.80;;;;;;5051430;28;20075;-63
2023/02/02 02:11:47;;;;;;;30.35;16.63;;;154.50;2252.80;;;;;;5051230;28;20090;-63
2023/02/02 02:17:07;;;;;;;23.08;13.98;;;154.10;2252.80;;;;;;5051214;28;20032;-63
2023/02/02 02:26:45;;;;;;;45.95;27.13;;;153.90;2252.80;;;;;;5051185;28;20548;-63
2023/02/02 02:29:42;;;;;;;42.25;23.42;;;154.00;2252.80;;;;;;5051126;28;20047;-63
2023/02/02 02:32:26;;;;;;;41.78;26.85;;;153.90;2252.80;;;;;;5050651;28;20029;-63
2023/02/02 02:35:17;;;;;;;25.58;17.58;;;154.00;2252.80;;;;;;5050918;28;20158;-63
2023/02/02 02:37:58;;;;;;;49.72;30.90;;;153.80;2252.80;;;;;;5051032;28;20025;-63
2023/02/02 02:40:59;;;;;;;58.92;36.05;;;153.70;2252.80;;;;;;5051028;28;20075;-63
2023/02/02 02:43:30;;;;;;;46.65;28.42;;;153.60;2252.80;;;;;;5047436;28;20112;-63
2023/02/02 02:45:56;;;;;;;42.42;26.95;;;153.70;2252.80;;;;;;5050592;28;20056;-63
2023/02/02 02:48:21;;;;;;;62.00;41.15;;;153.70;2252.80;;;;;;5050644;28;20091;-63
2023/02/02 02:50:47;;;;;;;66.93;42.30;;;128.60;2252.80;;;;;;5050448;28;20017;-62
2023/02/02 02:53:23;;;;;;;75.97;43.30;;;128.50;2252.80;;;;;;5050659;28;20029;-63
2023/02/02 02:56:10;;;;;;;70.00;42.53;;;128.30;2252.80;;;;;;5050196;28;20441;-63
2023/02/02 02:58:47;;;;;;;66.97;40.85;;;103.30;2227.20;;;;;;5050330;28;20490;-64
2023/02/02 03:01:20;;;;;;;73.00;43.40;;;128.10;2252.80;;;;;;5050616;28;20039;-63
2023/02/02 03:04:33;;;;;;;74.95;41.40;;;128.40;2252.80;;;;;;5050430;28;20430;-63
2023/02/02 03:07:25;;;;;;;109.05;59.17;;;128.50;2252.80;;;;;;4989201;28;20037;-63
2023/02/02 03:09:53;;;;;;;71.43;43.83;;;128.50;2252.80;;;;;;4989121;28;20034;-63
2023/02/02 03:12:18;;;;;;;87.35;50.28;;;128.50;2252.80;;;;;;4989046;28;20051;-63
2023/02/02 03:14:44;;;;;;;100.90;56.55;;;128.60;2252.80;;;;;;4988444;28;20049;-64
2023/02/02 03:17:10;;;;;;;97.22;56.20;;;128.70;2252.80;;;;;;4989088;28;20030;-63
2023/02/02 03:19:35;;;;;;;84.95;49.28;;;128.70;2252.80;;;;;;4988744;28;20117;-64
2023/02/02 03:22:02;;;;;;;56.58;35.65;;;128.60;2252.80;;;;;;4988965;28;20038;-63
2023/02/02 03:24:27;;;;;;;50.00;27.52;;;128.70;2252.80;;;;;;4988758;28;20541;-64
2023/02/02 03:26:53;;;;;;;38.22;25.17;;;128.00;2252.80;;;;;;4988975;28;20109;-63
2023/02/02 03:29:19;;;;;;;37.95;25.73;;;103.10;2227.20;;;;;;4988995;28;20033;-63
2023/02/02 03:31:46;;;;;;;48.55;28.48;;;103.20;2227.20;;;;;;4988696;28;20030;-64
2023/02/02 03:34:11;;;;;;;31.77;20.98;;;103.20;2227.20;;;;;;4988732;28;20038;-64
2023/02/02 03:36:37;;;;;;;31.10;19.85;;;;;;;;;;4988784;28;20022;-63
2023/02/02 03:39:03;;;;;;;144.05;75.53;;;128.30;2252.80;;;;;;4988776;28;20030;-63
2023/02/02 03:41:29;;;;;;;51.38;31.10;;;128.10;2252.80;;;;;;5032988;28;20044;-63
2023/02/02 03:43:54;;;;;;;35.30;21.13;;;128.10;2252.80;;;;;;5049848;28;20067;-64
2023/02/02 03:46:20;;;;;;;40.47;26.25;;;128.20;2252.80;;;;;;5050146;28;20083;-63
2023/02/02 03:48:46;;;;;;;35.25;22.95;;;128.20;2252.80;;;;;;5049785;28;20084;-63
2023/02/02 03:51:13;;;;;;;45.97;25.13;;;128.10;2252.80;;;;;;5049979;28;20467;-65
2023/02/02 03:53:43;;;;;;;36.88;22.38;;;128.00;2252.80;;;;;;5049669;28;20112;-63
2023/02/02 03:56:10;;;;;;;36.40;23.45;;;128.00;2252.80;;;;;;5049552;28;20045;-63
2023/02/02 03:58:36;;;;;;;50.53;29.60;;;128.00;2252.80;;;;;;5049871;28;20040;-63
2023/02/02 04:01:03;;;;;;;43.28;26.63;;;103.30;2227.20;;;;;;5049952;28;20041;-62
2023/02/02 04:03:29;;;;;;;50.85;33.50;;;103.30;2227.20;;;;;;5049844;28;20105;-62
2023/02/02 04:05:54;;;;;;;61.45;42.17;;;103.30;2227.20;;;;;;5049785;28;20033;-63
2023/02/02 04:08:20;;;;;;;64.82;45.55;;;103.30;2227.20;;;;;;5051611;28;20460;-63
2023/02/02 04:10:46;;;;;;;62.08;38.20;;;103.20;2227.20;;;;;;5053528;28;20351;-63
2023/02/02 04:13:11;;;;;;;46.65;28.58;;;103.20;2227.20;;;;;;5053660;28;20021;-63
2023/02/02 04:15:37;;;;;;;45.22;26.92;;;103.10;2227.20;;;;;;5053332;28;20021;-62
2023/02/02 04:18:03;;;;;;;41.63;25.95;;;103.00;2227.20;;;;;;5053445;28;20064;-63
2023/02/02 04:20:29;;;;;;;40.33;25.30;;;;;;;;;;5052991;28;20044;-63
2023/02/02 04:22:55;;;;;;;47.13;27.48;;;;;;;;;;5053174;28;20368;-63
2023/02/02 04:25:20;;;;;;;35.08;22.25;;;103.00;2227.20;;;;;;5053709;28;20040;-63
2023/02/02 04:27:46;;;;;;;24.88;16.02;;;103.00;2227.20;;;;;;5053176;28;20037;-62
2023/02/02 04:30:12;;;;;;;27.92;16.60;;;102.90;2227.20;;;;;;5053137;28;20025;-63
2023/02/02 04:32:38;;;;;;;30.00;18.73;;;102.80;2227.20;;;;;;5053124;28;20029;-63
2023/02/02 04:35:04;;;;;;;28.83;16.15;;;102.80;2227.20;;;;;;5052964;28;20032;-62
2023/02/02 04:37:31;;;;;;;29.45;17.05;;;102.80;2227.20;;;;;;5053059;28;20036;-62
2023/02/02 04:39:57;;;;;;;34.58;21.17;;;102.70;2227.20;;;;;;5053048;28;20037;-63
2023/02/02 04:42:22;;;;;;;27.35;17.75;;;102.80;2227.20;;;;;;5052953;28;20028;-63
2023/02/02 04:44:48;;;;;;;27.67;16.05;;;102.80;2227.20;;;;;;5052898;28;20035;-63
2023/02/02 04:47:14;;;;;;;55.33;31.80;;;102.70;2227.20;;;;;;5053234;28;20431;-63
2023/02/02 04:49:40;;;;;;;60.30;37.13;;;102.60;2227.20;;;;;;5052483;28;20044;-62
2023/02/02 04:52:05;;;;;;;82.80;50.30;;;102.70;2227.20;;;;;;5052701;28;20036;-63
2023/02/02 04:54:32;;;;;;;36.40;20.98;;;102.70;2227.20;;;;;;5052667;28;20570;-62
2023/02/02 04:56:58;;;;;;;67.78;45.55;;;102.80;2227.20;;;;;;5052803;28;20025;-62
2023/02/02 04:59:27;;;;;;;57.08;47.50;;;102.60;2227.20;;;;;;5053958;28;20421;-62
2023/02/02 05:01:53;;;;;;;41.50;35.38;;;102.70;2227.20;;;;;;5052705;28;20094;-62
2023/02/02 05:04:19;;;;;;;22.67;13.82;;;102.90;2227.20;;;;;;5052416;28;20079;-62
2023/02/02 05:06:44;;;;;;;22.83;15.45;;;102.60;2227.20;;;;;;5052393;28;20037;-64
2023/02/02 05:09:10;;;;;;;26.60;18.27;;;102.60;2227.20;;;;;;5052538;28;20024;-63
2023/02/02 05:11:37;;;;;;;22.83;14.95;;;102.50;2227.20;;;;;;5052528;28;20028;-64
2023/02/02 05:14:05;;;;;;;20.17;14.40;;;102.40;2227.20;;;;;;5052519;28;20096;-62
2023/02/02 05:16:31;;;;;;;21.52;17.00;;;77.50;2227.20;;;;;;5052457;28;20044;-63
2023/02/02 05:18:58;;;;;;;35.78;31.88;;;77.60;2227.20;;;;;;5051646;28;20025;-63
2023/02/02 05:21:24;;;;;;;22.85;16.17;;;77.70;2227.20;;;;;;5051890;28;20493;-63
2023/02/02 05:23:50;;;;;;;25.67;20.00;;;77.60;2227.20;;;;;;5052379;28;20095;-63
2023/02/02 05:26:19;;;;;;;26.40;17.08;;;77.70;2227.20;;;;;;5052083;28;20106;-64
2023/02/02 05:28:45;;;;;;;22.05;15.15;;;102.40;2227.20;;;;;;5052170;28;20025;-63
2023/02/02 05:31:11;;;;;;;21.50;15.30;;;102.50;2227.20;;;;;;5052140;28;20031;-63
2023/02/02 05:33:37;;;;;;;18.80;10.90;;;102.60;2227.20;;;;;;5052037;28;20025;-63
2023/02/02 05:36:03;;;;;;;18.55;14.65;;;102.50;2227.20;;;;;;5052255;28;20025;-63
2023/02/02 05:38:29;;;;;;;27.30;20.02;;;102.50;2227.20;;;;;;5051726;28;20032;-63
2023/02/02 05:40:56;;;;;;;24.45;17.00;;;102.40;2227.20;;;;;;5052083;28;20033;-64
2023/02/02 05:43:28;;;;;;;24.95;15.60;;;77.70;2227.20;;;;;;5052142;28;20049;-62
2023/02/02 05:45:53;;;;;;;24.13;16.50;;;77.70;2227.20;;;;;;5051921;28;20483;-63
2023/02/02 05:48:19;;;;;;;22.65;13.95;;;77.70;2227.20;;;;;;5051350;28;20064;-63
2023/02/02 05:50:56;;;;;;;24.27;15.95;;;77.60;2227.20;;;;;;5051563;28;20029;-64
2023/02/02 05:53:23;;;;;;;21.95;13.95;;;77.40;2227.20;;;;;;5051668;28;20075;-63
2023/02/02 05:55:48;;;;;;;23.42;14.27;;;77.20;2227.20;;;;;;5051753;28;20133;-63
2023/02/02 05:58:14;;;;;;;16.48;11.35;;;77.20;2227.20;;;;;;5054300;28;20089;-64
2023/02/02 06:00:40;;;;;;;14.73;10.52;;;77.40;2227.20;;;;;;5056656;28;20033;-64
2023/02/02 06:03:05;;;;;;;19.10;11.63;;;77.70;2227.20;;;;;;5057261;28;20150;-64
2023/02/02 06:05:31;;;;;;;16.38;10.50;;;102.50;2227.20;;;;;;5056989;28;20040;-66
2023/02/02 06:07:57;;;;;;;11.52;6.75;;;102.50;2227.20;;;;;;5056156;28;20476;-66
2023/02/02 06:10:22;;;;;;;10.50;6.30;;;102.60;2227.20;;;;;;5055835;28;20033;-62
2023/02/02 06:12:48;;;;;;;10.45;7.05;;;102.60;2227.20;;;;;;5051386;28;20036;-63
2023/02/02 06:15:14;;;;;;;12.80;7.10;;;102.60;2227.20;;;;;;5051313;28;20466;-63
2023/02/02 06:17:39;;;;;;;12.23;7.30;;;102.60;2227.20;;;;;;5051228;28;20067;-63
2023/02/02 06:20:05;;;;;;;13.43;8.23;;;102.70;2227.20;;;;;;5050922;28;20065;-64
2023/02/02 06:22:31;;;;;;;18.13;11.93;;;102.70;2227.20;;;;;;5050908;28;20555;-62
2023/02/02 06:24:57;;;;;;;21.10;11.73;;;102.60;2227.20;;;;;;5051135;28;20124;-63
2023/02/02 06:27:23;;;;;;;14.63;10.35;;;102.60;2227.20;;;;;;5050873;28;20107;-63
2023/02/02 06:29:49;;;;;;;17.25;10.70;;;102.60;2227.20;;;;;;5051179;28;20058;-62
2023/02/02 06:32:14;;;;;;;24.58;14.25;;;102.80;2227.20;;;;;;5050974;28;20025;-65
2023/02/02 06:34:41;;;;;;;26.80;16.55;;;102.80;2227.20;;;;;;5051112;28;20074;-63
2023/02/02 06:37:07;;;;;;;23.50;15.63;;;102.70;2227.20;;;;;;5050970;28;20021;-62
2023/02/02 06:39:32;;;;;;;23.60;13.90;;;102.90;2227.20;;;;;;5050751;28;20044;-63
2023/02/02 06:41:58;;;;;;;19.05;13.93;;;102.90;2227.20;;;;;;5050776;28;20029;-63
2023/02/02 06:44:24;;;;;;;18.60;11.93;;;102.70;2227.20;;;;;;5050838;28;20112;-62
2023/02/02 06:46:49;;;;;;;22.67;13.32;;;102.70;2227.20;;;;;;5050780;28;20025;-61
2023/02/02 06:49:15;;;;;;;20.00;14.15;;;102.80;2227.20;;;;;;5050528;28;20048;-63
2023/02/02 06:51:41;;;;;;;20.67;13.40;;;103.00;2227.20;;;;;;5050700;28;20087;-62
2023/02/02 06:54:06;;;;;;;18.25;13.60;;;103.10;2227.20;;;;;;5050568;28;20368;-63
2023/02/02 06:56:32;;;;;;;17.10;12.38;;;103.10;2227.20;;;;;;5050978;28;20111;-62
2023/02/02 06:58:58;;;;;;;17.40;11.10;;;103.20;2227.20;;;;;;5050679;28;20048;-61
2023/02/02 07:01:24;;;;;;;20.90;12.23;;;103.30;2227.20;;;;;;5050475;28;20028;-63
2023/02/02 07:03:50;;;;;;;30.02;12.18;;;128.10;2252.80;;;;;;5050182;28;20078;-63
2023/02/02 07:06:25;;;;;;;20.58;15.73;;;128.30;2252.80;;;;;;5050433;28;20064;-63
2023/02/02 07:08:51;;;;;;;60.40;27.58;;;128.40;2252.80;;;;;;5050482;28;20352;-62
2023/02/02 07:11:17;;;;;;;31.45;17.80;;;128.80;2252.80;;;;;;5050572;28;20032;-62
2023/02/02 07:13:45;;;;;;;18.90;15.13;;;153.70;2252.80;;;;;;5050467;28;20383;-63
2023/02/02 07:16:13;;;;;;;21.38;15.20;;;153.90;2252.80;;;;;;5050547;28;20025;-62
2023/02/02 07:18:41;;;;;;;19.42;13.80;;;154.00;2252.80;;;;;;5050382;28;20060;-63
2023/02/02 07:21:07;;;;;;;21.25;17.30;;;154.10;2252.80;;;;;;5050229;28;20052;-63
2023/02/02 07:23:33;;;;;;;15.77;11.60;;;154.20;2252.80;;;;;;5050345;28;20033;-62
2023/02/02 07:26:00;;;;;;;22.77;16.75;;;154.20;2252.80;;;;;;5050513;28;20036;-63
2023/02/02 07:28:26;;;;;;;23.52;16.02;;;154.30;2252.80;;;;;;5050100;28;20049;-63
2023/02/02 07:30:52;;;;;;;30.83;23.05;;;154.40;2252.80;;;;;;5050325;28;20025;-63
2023/02/02 07:33:18;;;;;;;37.45;22.42;;;179.20;2252.80;;;;;;5050017;28;20025;-63
2023/02/02 07:35:43;;;;;;;19.58;14.95;;;179.20;2252.80;;;;;;5050118;28;20108;-63
2023/02/02 07:38:09;;;;;;;20.08;14.77;;;179.20;2252.80;;;;;;5049877;28;20067;-62
2023/02/02 07:40:35;;;;;;;12.65;9.02;;;179.30;2252.80;;;;;;5049929;28;20033;-64
2023/02/02 07:43:01;;;;;;;16.85;13.40;;;179.30;2252.80;;;;;;5051477;28;20433;-63
2023/02/02 07:45:27;;;;;;;33.45;28.50;;;179.30;2252.80;;;;;;5053931;28;20029;-63
2023/02/02 07:47:56;;;;;;;25.63;22.38;;;179.30;2252.80;;;;;;5053994;28;20747;-63
2023/02/02 07:50:22;;;;;;;40.78;36.78;;;179.50;2252.80;;;;;;5053973;28;20056;-63
2023/02/02 07:52:48;;;;;;;21.55;12.30;;;179.70;2252.80;;;;;;5051648;28;20044;-63
2023/02/02 07:55:14;;;;;;;61.60;41.40;;;204.90;2252.80;;;;;;5036669;28;20079;-63
2023/02/02 07:57:39;;;;;;;62.17;41.97;;;205.00;2252.80;;;;;;5033838;28;20460;-64
2023/02/02 08:00:06;;;;;;;51.50;32.92;;;205.00;2252.80;;;;;;5033607;28;20483;-64
2023/02/02 08:02:31;;;;;;;56.30;37.38;;;205.00;2252.80;;;;;;5033923;28;20045;-63
2023/02/02 08:04:57;;;;;;;62.08;39.55;;;205.00;2252.80;;;;;;5033364;28;20056;-62
2023/02/02 08:07:23;;;;;;;75.22;50.90;;;205.00;2252.80;;;;;;5036123;28;20034;-63
2023/02/02 08:09:49;;;;;;;42.55;29.92;;;205.10;2252.80;;;;;;5033367;28;20036;-62
2023/02/02 08:12:15;;;;;;;67.70;49.03;;;205.20;2252.80;;;;;;5033520;28;20057;-64
2023/02/02 08:14:41;;;;;;;84.03;59.63;;;205.30;2252.80;;;;;;5033704;28;20057;-63
2023/02/02 08:17:07;;;;;;;177.23;113.60;;;205.40;2252.80;;;;;;5033450;28;20022;-63
2023/02/02 08:19:32;;;;;;;190.73;127.68;;;205.20;2252.80;;;;;;5033424;28;20025;-63
2023/02/02 08:21:58;;;;;;;161.70;106.88;;;204.80;2252.80;;;;;;5033201;28;20065;-63
2023/02/02 08:24:24;;;;;;;110.22;67.03;;;204.80;2252.80;;;;;;5033446;28;20055;-64
2023/02/02 08:26:49;;;;;;;70.10;46.92;;;205.00;2252.80;;;;;;5033289;28;20029;-64
2023/02/02 08:29:16;;;;;;;41.03;25.77;;;205.30;2252.80;;;;;;5033315;28;20379;-61
2023/02/02 08:31:43;;;;;;;36.78;21.88;;;230.40;2252.80;;;;;;5033416;28;20033;-63
2023/02/02 08:34:10;;;;;;;40.13;28.45;;;256.50;2252.80;;;;;;5033108;28;20032;-61
2023/02/02 08:36:36;;;;;;;35.88;24.27;;;256.20;2252.80;;;;;;5033053;28;20034;-62
2023/02/02 08:39:05;;;;;;;37.90;26.52;;;231.30;2252.80;;;;;;5033045;28;20101;-62
2023/02/02 08:41:31;;;;;;;42.92;28.73;;;282.40;2150.40;;;;;;5033454;28;20430;-62
2023/02/02 08:43:57;;;;;;;41.08;28.95;;;307.80;2048.00;;;;;;5033200;28;20100;-62
2023/02/02 08:46:23;;;;;;;31.88;24.23;;;307.40;2099.20;;;;;;5032999;28;20121;-63
2023/02/02 08:48:49;;;;;;;46.38;33.72;;;256.90;2124.80;;;;;;5045549;28;20049;-62
2023/02/02 08:51:18;;;;;;;42.72;31.75;;;256.40;2227.20;;;;;;5052660;28;20017;-62
2023/02/02 08:53:44;;;;;;;56.60;38.83;;;256.50;2252.80;;;;;;5052347;28;20028;-62
2023/02/02 08:56:18;;;;;;;39.85;28.70;;;256.10;2252.80;;;;;;5052363;28;20029;-62
2023/02/02 08:58:46;;;;;;;36.08;26.08;;;231.30;2252.80;;;;;;5052703;28;20017;-62
2023/02/02 09:01:34;;;;;;;33.35;22.35;;;231.10;2252.80;;;;;;5052888;28;20044;-62
2023/02/02 09:04:12;;;;;;;41.13;28.88;;;230.80;2252.80;;;;;;5052708;28;20032;-62
2023/02/02 09:06:39;;;;;;;28.15;18.45;;;205.30;2252.80;;;;;;5052484;28;20048;-61
2023/02/02 09:09:07;;;;;;;28.92;18.17;;;205.20;2252.80;;;;;;5051696;28;20443;-61
2023/02/02 09:11:34;;;;;;;25.50;15.02;;;205.00;2252.80;;;;;;5052972;28;20033;-62
2023/02/02 09:14:01;;;;;;;35.63;24.35;;;205.10;2252.80;;;;;;5052989;28;20459;-60
2023/02/02 09:16:28;;;;;;;37.33;26.08;;;204.90;2252.80;;;;;;5052509;28;20052;-62
2023/02/02 09:18:55;;;;;;;29.90;20.77;;;204.90;2252.80;;;;;;5052453;28;20060;-60
2023/02/02 09:21:21;;;;;;;35.60;26.85;;;180.10;2252.80;;;;;;5052517;28;20033;-62
2023/02/02 09:23:49;;;;;;;33.17;22.70;;;180.00;2252.80;;;;;;5052360;28;20061;-62
2023/02/02 09:26:26;;;;;;;27.55;17.10;;;180.10;2252.80;;;;;;5052434;28;20028;-62
2023/02/02 09:29:01;;;;;;;14.07;9.52;;;180.00;2252.80;;;;;;5052410;28;20013;-62
2023/02/02 09:31:28;;;;;;;14.35;9.45;;;179.90;2252.80;;;;;;5052047;28;20028;-61
2023/02/02 09:33:54;;;;;;;17.55;12.77;;;;;;;;;;5052390;28;20376;-62
2023/02/02 09:36:22;;;;;;;15.05;9.77;;;179.80;2252.80;;;;;;5052225;28;20032;-62
2023/02/02 09:38:49;;;;;;;15.07;10.95;;;179.80;2252.80;;;;;;5052035;28;20029;-62
2023/02/02 09:41:36;;;;;;;18.13;11.15;;;179.90;2252.80;;;;;;5051751;28;20115;-62
2023/02/02 09:44:37;;;;;;;13.80;8.57;;;179.90;2252.80;;;;;;5052009;28;20075;-61
2023/02/02 09:47:32;;;;;;;23.15;10.93;;;179.90;2252.80;;;;;;5054466;28;20063;-62
2023/02/02 09:50:00;;;;;;;23.05;14.32;;;179.90;2252.80;;;;;;5051157;28;20399;-61
2023/02/02 09:53:10;;;;;;;16.08;12.90;;;180.00;2252.80;;;;;;5040162;28;20025;-61
2023/02/02 09:55:42;;;;;;;12.23;8.23;;;180.00;2252.80;;;;;;5048503;28;20037;-62
2023/02/02 09:58:31;;;;;;;18.67;14.40;;;180.00;2252.80;;;;;;5051499;28;20036;-61
2023/02/02 10:01:03;;;;;;;35.10;22.88;;;;;;;;;;5051412;28;20033;-62
2023/02/02 10:03:35;;;;;;;15.40;10.50;;;;;;;;;;5051532;28;20534;-62
2023/02/02 10:06:01;;;;;;;19.92;13.10;;;;;;;;;;5051314;28;20445;-62
2023/02/02 10:08:33;;;;;;;18.83;15.20;;;;;;;;;;5051380;28;20585;-61
2023/02/02 10:11:01;;;;;;;14.52;9.57;;;;;;;;;;5051188;28;20079;-62
2023/02/02 10:13:32;;;;;;;22.20;15.20;;;;;;;;;;5051308;28;20537;-61
2023/02/02 10:16:04;;;;;;;16.23;10.43;;;;;;;;;;5050308;28;20104;-60
2023/02/02 10:18:43;;;;;;;26.50;17.42;;;;;;;;;;5051275;28;20020;-63
2023/02/02 10:21:13;;;;;;;19.23;12.30;;;;;;;;;;5050808;28;20493;-62
2023/02/02 10:23:43;;;;;;;54.70;37.17;;;;;;;;;;5050809;28;20033;-62
2023/02/02 10:26:23;;;;;;;56.90;36.25;;;;;;;;;;5050753;28;20071;-63
2023/02/02 10:29:08;;;;;;;65.03;40.22;;;;;;;;;;5050836;28;20467;-61
2023/02/02 10:31:52;;;;;;;69.50;47.45;;;;;;;;;;5051138;28;20428;-61
2023/02/02 10:34:36;;;;;;;89.40;56.83;;;;;;;;;;5050703;28;20526;-61
2023/02/02 10:37:02;;;;;;;143.63;97.75;;;;;;;;;;5051197;28;20060;-61
2023/02/02 10:39:31;;;;;;;90.80;60.28;;;;;;;;;;5050852;28;20025;-61
2023/02/02 10:42:01;;;;;;;112.70;74.90;;;;;;;;;;5050655;28;20059;-64
2023/02/02 10:44:28;;;;;;;87.00;56.40;;;;;;;;;;5050664;28;20021;-61
2023/02/02 10:46:56;;;;;;;75.85;50.55;;;;;;;;;;5050788;28;20025;-61
2023/02/02 10:49:36;;;;;;;34.53;22.30;;;;;;;;;;5033645;28;20494;-62
2023/02/02 10:52:02;;;;;;;48.58;32.67;;;;;;;;;;5030727;28;20467;-60
2023/02/02 10:55:00;;;;;;;37.10;25.63;;;205.50;2252.80;;;;;;5030787;28;20112;-61
2023/02/02 10:57:45;;;;;;;24.60;17.58;;;205.40;2252.80;;;;;;5030636;28;20034;-61
2023/02/02 11:00:16;;;;;;;26.27;19.42;;;205.50;2252.80;;;;;;5030776;28;20459;-61
2023/02/02 11:02:42;;;;;;;26.75;17.75;;;205.40;2252.80;;;;;;5030815;28;20029;-62
2023/02/02 11:08:01;;;;;;;14.15;9.18;;;205.00;2252.80;;;;;;5030936;28;20043;-61
2023/02/02 11:10:28;;;;;;;13.15;8.98;;;204.90;2252.80;;;;;;5030533;28;20041;-60
2023/02/02 11:12:56;;;;;;;17.40;12.32;;;204.80;2252.80;;;;;;5030820;28;20529;-61
2023/02/02 11:15:28;;;;;;;16.02;11.65;;;180.10;2252.80;;;;;;5030581;28;20029;-62
2023/02/02 11:17:54;;;;;;;13.43;9.70;;;179.90;2252.80;;;;;;5029928;28;20053;-62
2023/02/02 11:20:31;;;;;;;24.50;16.58;;;179.70;2252.80;;;;;;5030423;28;20092;-62
2023/02/02 11:23:02;;;;;;;21.85;15.15;;;179.70;2252.80;;;;;;5030102;28;20040;-61
2023/02/02 11:25:36;;;;;;;19.38;13.63;;;179.80;2252.80;;;;;;5030329;28;20064;-61
2023/02/02 11:28:17;;;;;;;13.93;10.18;;;179.70;2252.80;;;;;;5030524;28;20426;-61
2023/02/02 11:30:51;;;;;;;11.23;7.13;;;179.80;2252.80;;;;;;5030488;28;20033;-61
2023/02/02 11:33:26;;;;;;;30.38;21.88;;;179.80;2252.80;;;;;;5030022;28;20032;-61
2023/02/02 11:36:03;;;;;;;23.50;16.80;;;179.90;2252.80;;;;;;5030264;28;20061;-62
2023/02/02 11:38:30;;;;;;;42.67;28.92;;;179.80;2252.80;;;;;;5030205;28;20716;-62
2023/02/02 11:40:59;;;;;;;19.45;13.07;;;180.10;2252.80;;;;;;5030138;28;20041;-61
2023/02/02 11:43:28;;;;;;;18.92;13.00;;;180.10;2252.80;;;;;;5030308;28;20072;-61
2023/02/02 11:46:06;;;;;;;22.15;15.10;;;180.10;2252.80;;;;;;5030407;28;20028;-62
2023/02/02 11:48:36;;;;;;;32.05;21.05;;;204.80;2252.80;;;;;;5030090;28;20119;-62
2023/02/02 11:51:03;;;;;;;18.70;12.98;;;204.80;2252.80;;;;;;5030556;28;20100;-62
2023/02/02 11:53:36;;;;;;;13.75;8.73;;;204.90;2252.80;;;;;;5042136;28;20113;-60
2023/02/02 11:56:07;;;;;;;10.50;6.38;;;205.00;2252.80;;;;;;5047367;28;20754;-63
2023/02/02 11:58:43;;;;;;;17.52;10.50;;;205.00;2252.80;;;;;;5047552;28;20060;-62
2023/02/02 12:01:21;;;;;;;11.23;7.80;;;205.20;2252.80;;;;;;5046827;28;20037;-62
2023/02/02 12:03:48;;;;;;;15.50;9.52;;;205.30;2252.80;;;;;;5032388;28;20022;-62
2023/02/02 12:06:18;;;;;;;13.98;11.20;;;205.60;2252.80;;;;;;5032769;28;20030;-63
2023/02/02 12:08:45;;;;;;;17.80;13.05;;;205.70;2252.80;;;;;;5047044;28;20043;-62
2023/02/02 12:11:23;;;;;;;11.73;6.50;;;230.40;2252.80;;;;;;5047345;28;20021;-59
2023/02/02 12:13:59;;;;;;;10.25;6.28;;;230.40;2252.80;;;;;;5045668;28;20027;-61
2023/02/02 12:17:03;;;;;;;18.63;11.75;;;230.50;2252.80;;;;;;5032471;28;20025;-60
2023/02/02 12:19:43;;;;;;;12.45;7.90;;;230.50;2252.80;;;;;;5043124;28;20025;-62
2023/02/02 12:22:42;;;;;;;14.70;9.65;;;230.60;2252.80;;;;;;5032334;28;20032;-61
2023/02/02 12:25:14;;;;;;;13.65;7.70;;;230.60;2252.80;;;;;;5045405;28;20095;-63
2023/02/02 12:28:05;;;;;;;37.42;24.42;;;230.50;2252.80;;;;;;5046527;28;20051;-61
2023/02/02 12:30:40;;;;;;;16.75;9.27;;;230.50;2252.80;;;;;;5050721;28;20017;-63
2023/02/02 12:33:20;;;;;;;20.30;12.93;;;230.70;2252.80;;;;;;5050394;28;20021;-61
2023/02/02 12:36:00;;;;;;;10.80;6.95;;;230.80;2252.80;;;;;;5050381;28;20017;-62